Time;durP1;ratioP1;P1;durP2;ratioP2;P2;SDS_P1;SDS_P2;PMS_P1;PMS_P2;Temp;Humidity;BMP_temperature;BMP_pressure;BME280_temperature;BME280_humidity;BME280_pressure;Samples;Min_cycle;Max_cycle;Signal;HPM_P1;HPM_P2
2022/11/20 00:01:20;;;;;;;;;;;;;;;;;;4433003;32;19945;-70
2022/11/20 00:03:45;;;;;;;;;;;;;;;;;;4420553;32;19933;-69
2022/11/20 00:06:10;;;;;;;;;;;;;;;;;;4420305;32;19933;-68
2022/11/20 00:08:36;;;;;;;;;;;;;;;;;;4408922;32;20027;-68
2022/11/20 00:11:01;;;;;;;;;;;;;;;;;;4408361;32;20360;-68
2022/11/20 00:13:26;;;;;;;;;;;;;;;;;;4420285;32;20263;-69
2022/11/20 00:15:51;;;;;;;;;;;;;;;;;;4421479;32;19972;-69
2022/11/20 00:18:16;;;;;;;;;;;;;;;;;;4421927;32;19937;-69
2022/11/20 00:20:41;;;;;;;;;;;;;;;;;;4420825;32;19979;-69
2022/11/20 00:23:06;;;;;;;;;;;;;;;;;;4421784;32;20264;-68
2022/11/20 00:25:31;;;;;;;;;;;;;;;;;;4420550;32;20236;-67
2022/11/20 00:27:57;;;;;;;;;;;;;;;;;;4420618;32;19945;-69
2022/11/20 00:30:22;;;;;;;;;;;;;;;;;;4424108;32;19933;-68
2022/11/20 00:32:47;;;;;;;;;;;;;;;;;;4422297;32;19997;-67
2022/11/20 00:35:12;;;;;;;;;;;;;;;;;;4437254;32;19937;-67
2022/11/20 00:37:37;;;;;;;;;;;;;;;;;;4422034;32;19941;-67
2022/11/20 00:40:02;;;;;;;;;;;;;;;;;;4435354;32;19951;-68
2022/11/20 00:42:27;;;;;;;;;;;;;;;;;;4436116;32;19992;-69
2022/11/20 00:44:52;;;;;;;;;;;;;;;;;;4437290;32;19953;-69
2022/11/20 00:47:17;;;;;;;;;;;;;;;;;;4436076;32;20227;-68
2022/11/20 00:49:42;;;;;;;;;;;;;;;;;;4436609;32;19943;-68
2022/11/20 00:52:07;;;;;;;;;;;;;;;;;;4421984;32;19947;-68
2022/11/20 00:54:33;;;;;;;;;;;;;;;;;;4436083;32;20299;-68
2022/11/20 00:56:58;;;;;;;;;;;;;;;;;;4437381;32;19933;-68
2022/11/20 00:59:23;;;;;;;;;;;;;;;;;;4436880;32;19992;-68
2022/11/20 01:01:48;;;;;;;;;;;;;;;;;;4421886;32;19937;-67
2022/11/20 01:04:13;;;;;;;;;;;;;;;;;;4422087;32;19966;-68
2022/11/20 01:06:38;;;;;;;;;;;;;;;;;;4422145;32;19981;-68
2022/11/20 01:09:03;;;;;;;;;;;;;;;;;;4422123;32;19964;-68
2022/11/20 01:11:28;;;;;;;;;;;;;;;;;;4421356;32;19937;-67
2022/11/20 01:13:54;;;;;;;;;;;;;;;;;;4421598;32;19983;-68
2022/11/20 01:16:19;;;;;;;;;;;;;;;;;;4421180;32;19937;-69
2022/11/20 01:18:44;;;;;;;;;;;;;;;;;;4405680;32;19949;-69
2022/11/20 01:21:09;;;;;;;;;;;;;;;;;;4422126;32;19933;-69
2022/11/20 01:23:34;;;;;;;;;;;;;;;;;;4420006;32;19933;-69
2022/11/20 01:25:59;;;;;;;;;;;;;;;;;;4407834;32;19941;-69
2022/11/20 01:28:24;;;;;;;;;;;;;;;;;;4405976;32;19953;-69
2022/11/20 01:30:49;;;;;;;;;;;;;;;;;;4429304;32;20270;-69
2022/11/20 01:33:15;;;;;;;;;;;;;;;;;;4436694;32;20279;-68
2022/11/20 01:35:40;;;;;;;;;;;;;;;;;;4435036;32;19928;-68
2022/11/20 01:38:05;;;;;;;;;;;;;;;;;;4436352;32;19990;-68
2022/11/20 01:40:30;;;;;;;;;;;;;;;;;;4419434;32;20024;-69
2022/11/20 01:45:39;;;;;;;;;;;;;;;;;;4424586;32;20250;-69
2022/11/20 01:48:04;;;;;;;;;;;;;;;;;;4424988;32;19988;-68
2022/11/20 01:50:29;;;;;;;;;;;;;;;;;;4424150;32;19956;-67
2022/11/20 01:52:54;;;;;;;;;;;;;;;;;;4424119;32;19944;-67
2022/11/20 01:55:19;;;;;;;;;;;;;;;;;;4422641;32;19938;-67
2022/11/20 01:57:44;;;;;;;;;;;;;;;;;;4422953;32;20297;-67
2022/11/20 02:00:09;;;;;;;;;;;;;;;;;;4424903;32;20302;-68
2022/11/20 02:02:35;;;;;;;;;;;;;;;;;;4428812;32;19991;-68
2022/11/20 02:05:00;;;;;;;;;;;;;;;;;;4422792;32;19948;-68
2022/11/20 02:07:25;;;;;;;;;;;;;;;;;;4438437;32;19963;-68
2022/11/20 02:09:50;;;;;;;;;;;;;;;;;;4439067;32;19937;-68
2022/11/20 02:14:59;;;;;;;;;;;;;;;;;;4438560;32;20363;-68
2022/11/20 02:17:24;;;;;;;;;;;;;;;;;;4438194;32;20254;-69
2022/11/20 02:19:49;;;;;;;;;;;;;;;;;;4439664;32;19940;-68
2022/11/20 02:22:14;;;;;;;;;;;;;;;;;;4438096;32;19966;-68
2022/11/20 02:24:39;;;;;;;;;;;;;;;;;;4439178;32;19949;-68
2022/11/20 02:27:04;;;;;;;;;;;;;;;;;;4423475;32;19937;-68
2022/11/20 02:29:29;;;;;;;;;;;;;;;;;;4438628;32;19956;-68
2022/11/20 02:31:54;;;;;;;;;;;;;;;;;;4426412;32;19983;-68
2022/11/20 02:34:19;;;;;;;;;;;;;;;;;;4407719;32;20341;-68
2022/11/20 02:36:45;;;;;;;;;;;;;;;;;;4424282;32;20243;-68
2022/11/20 02:39:10;;;;;;;;;;;;;;;;;;4422397;32;20004;-68
2022/11/20 02:41:36;;;;;;;;;;;;;;;;;;4422974;32;19937;-68
2022/11/20 02:44:01;;;;;;;;;;;;;;;;;;4421888;32;20101;-67
2022/11/20 02:46:26;;;;;;;;;;;;;;;;;;4423850;32;20311;-69
2022/11/20 02:48:51;;;;;;;;;;;;;;;;;;4423655;32;19933;-68
2022/11/20 02:51:16;;;;;;;;;;;;;;;;;;4424210;32;19979;-67
2022/11/20 02:53:41;;;;;;;;;;;;;;;;;;4439006;32;19976;-69
2022/11/20 02:56:06;;;;;;;;;;;;;;;;;;4436917;32;19960;-68
2022/11/20 02:58:31;;;;;;;;;;;;;;;;;;4438833;32;20350;-69
2022/11/20 03:00:56;;;;;;;;;;;;;;;;;;4438843;32;19946;-68
2022/11/20 03:03:21;;;;;;;;;;;;;;;;;;4437472;32;19980;-68
2022/11/20 03:05:47;;;;;;;;;;;;;;;;;;4436865;32;19984;-68
2022/11/20 03:08:12;;;;;;;;;;;;;;;;;;4438382;32;20053;-68
2022/11/20 03:10:37;;;;;;;;;;;;;;;;;;4424764;32;19948;-68
2022/11/20 03:13:02;;;;;;;;;;;;;;;;;;4436413;32;19989;-68
2022/11/20 03:15:27;;;;;;;;;;;;;;;;;;4439054;32;20304;-68
2022/11/20 03:17:52;;;;;;;;;;;;;;;;;;4438624;32;19956;-68
2022/11/20 03:20:17;;;;;;;;;;;;;;;;;;4437428;32;20296;-68
2022/11/20 03:22:42;;;;;;;;;;;;;;;;;;4438014;32;19932;-68
2022/11/20 03:25:07;;;;;;;;;;;;;;;;;;4425563;32;19933;-69
2022/11/20 03:27:33;;;;;;;;;;;;;;;;;;4422393;32;19941;-69
2022/11/20 03:29:58;;;;;;;;;;;;;;;;;;4408156;32;20259;-68
2022/11/20 03:32:23;;;;;;;;;;;;;;;;;;4423066;32;19948;-68
2022/11/20 03:34:48;;;;;;;;;;;;;;;;;;4422493;32;20045;-68
2022/11/20 03:37:13;;;;;;;;;;;;;;;;;;4421161;32;20285;-68
2022/11/20 03:39:38;;;;;;;;;;;;;;;;;;4420713;32;19933;-68
2022/11/20 03:42:44;;;;;;;;;;;;;;;;;;4423027;32;19992;-69
2022/11/20 03:44:48;;;;;;;;;;;;;;;;;;4421318;32;20331;-68
2022/11/20 03:47:13;;;;;;;;;;;;;;;;;;4421535;32;20277;-67
2022/11/20 03:49:38;;;;;;;;;;;;;;;;;;4422584;32;19964;-69
2022/11/20 03:52:03;;;;;;;;;;;;;;;;;;4421167;32;19953;-67
2022/11/20 03:54:28;;;;;;;;;;;;;;;;;;4422713;32;19966;-68
2022/11/20 03:56:54;;;;;;;;;;;;;;;;;;4422510;32;20319;-68
2022/11/20 03:59:19;;;;;;;;;;;;;;;;;;4422589;32;19945;-68
2022/11/20 04:01:44;;;;;;;;;;;;;;;;;;4420214;32;19971;-68
2022/11/20 04:04:09;;;;;;;;;;;;;;;;;;4421702;32;19949;-67
2022/11/20 04:06:34;;;;;;;;;;;;;;;;;;4422301;32;19945;-67
2022/11/20 04:08:59;;;;;;;;;;;;;;;;;;4422403;32;20342;-68
2022/11/20 04:11:24;;;;;;;;;;;;;;;;;;4422722;32;19992;-67
2022/11/20 04:13:49;;;;;;;;;;;;;;;;;;4422319;32;19953;-67
2022/11/20 04:16:14;;;;;;;;;;;;;;;;;;4429232;32;19951;-67
2022/11/20 04:18:39;;;;;;;;;;;;;;;;;;4436868;32;19992;-67
2022/11/20 04:21:04;;;;;;;;;;;;;;;;;;4437501;32;19967;-68
2022/11/20 04:23:29;;;;;;;;;;;;;;;;;;4435579;32;20001;-68
2022/11/20 04:25:55;;;;;;;;;;;;;;;;;;4435519;32;19937;-68
2022/11/20 04:28:20;;;;;;;;;;;;;;;;;;4436222;32;19952;-68
2022/11/20 04:30:45;;;;;;;;;;;;;;;;;;4436583;32;19943;-68
2022/11/20 04:33:10;;;;;;;;;;;;;;;;;;4437678;32;19987;-68
2022/11/20 04:35:35;;;;;;;;;;;;;;;;;;4435981;32;20273;-68
2022/11/20 04:38:00;;;;;;;;;;;;;;;;;;4423176;32;20000;-68
2022/11/20 04:40:25;;;;;;;;;;;;;;;;;;4434951;32;20362;-68
2022/11/20 04:42:50;;;;;;;;;;;;;;;;;;4424271;32;19948;-68
2022/11/20 04:45:15;;;;;;;;;;;;;;;;;;4422174;32;19933;-68
2022/11/20 04:47:40;;;;;;;;;;;;;;;;;;4420777;32;19942;-67
2022/11/20 04:50:06;;;;;;;;;;;;;;;;;;4422096;32;19933;-67
2022/11/20 04:52:31;;;;;;;;;;;;;;;;;;4420341;32;19945;-68
2022/11/20 04:54:56;;;;;;;;;;;;;;;;;;4420579;32;19947;-68
2022/11/20 04:57:21;;;;;;;;;;;;;;;;;;4422072;32;19969;-68
2022/11/20 04:59:46;;;;;;;;;;;;;;;;;;4422964;32;19945;-68
2022/11/20 05:02:11;;;;;;;;;;;;;;;;;;4421683;32;19983;-68
2022/11/20 05:04:36;;;;;;;;;;;;;;;;;;4420293;32;19937;-68
2022/11/20 05:07:01;;;;;;;;;;;;;;;;;;4422197;32;19947;-68
2022/11/20 05:09:26;;;;;;;;;;;;;;;;;;4421594;32;19984;-68
2022/11/20 05:11:52;;;;;;;;;;;;;;;;;;4421236;32;19999;-68
2022/11/20 05:14:17;;;;;;;;;;;;;;;;;;4421529;32;19933;-69
2022/11/20 05:16:42;;;;;;;;;;;;;;;;;;4420053;32;19984;-68
2022/11/20 05:19:07;;;;;;;;;;;;;;;;;;4420087;32;20303;-68
2022/11/20 05:21:32;;;;;;;;;;;;;;;;;;4421841;32;19951;-69
2022/11/20 05:23:57;;;;;;;;;;;;;;;;;;4421626;32;19933;-68
2022/11/20 05:26:22;;;;;;;;;;;;;;;;;;4419881;32;19933;-68
2022/11/20 05:28:47;;;;;;;;;;;;;;;;;;4420177;32;20288;-68
2022/11/20 05:31:12;;;;;;;;;;;;;;;;;;4420350;32;19933;-68
2022/11/20 05:33:37;;;;;;;;;;;;;;;;;;4421272;32;19933;-68
2022/11/20 05:36:02;;;;;;;;;;;;;;;;;;4421962;32;19937;-68
2022/11/20 05:38:28;;;;;;;;;;;;;;;;;;4420996;32;19937;-68
2022/11/20 05:40:53;;;;;;;;;;;;;;;;;;4422038;32;19943;-68
2022/11/20 05:43:18;;;;;;;;;;;;;;;;;;4421240;32;19929;-68
2022/11/20 05:45:43;;;;;;;;;;;;;;;;;;4420064;32;20011;-68
2022/11/20 05:48:08;;;;;;;;;;;;;;;;;;4421707;32;19974;-68
2022/11/20 05:50:33;;;;;;;;;;;;;;;;;;4420119;32;19934;-67
2022/11/20 05:52:59;;;;;;;;;;;;;;;;;;4421332;32;19938;-68
2022/11/20 05:55:24;;;;;;;;;;;;;;;;;;4421407;32;20315;-68
2022/11/20 05:57:49;;;;;;;;;;;;;;;;;;4418959;32;20366;-67
2022/11/20 06:00:14;;;;;;;;;;;;;;;;;;4420967;32;19945;-69
2022/11/20 06:02:39;;;;;;;;;;;;;;;;;;4420562;32;20005;-67
2022/11/20 06:05:04;;;;;;;;;;;;;;;;;;4421243;32;19942;-67
2022/11/20 06:07:29;;;;;;;;;;;;;;;;;;4419633;32;19948;-68
2022/11/20 06:09:54;;;;;;;;;;;;;;;;;;4421300;32;19956;-68
2022/11/20 06:12:19;;;;;;;;;;;;;;;;;;4432308;32;19979;-68
2022/11/20 06:14:44;;;;;;;;;;;;;;;;;;4435464;32;20306;-68
2022/11/20 06:17:10;;;;;;;;;;;;;;;;;;4436526;32;19974;-68
2022/11/20 06:19:35;;;;;;;;;;;;;;;;;;4436401;32;20303;-68
2022/11/20 06:22:00;;;;;;;;;;;;;;;;;;4437009;32;19933;-68
2022/11/20 06:24:25;;;;;;;;;;;;;;;;;;4435558;32;19984;-67
2022/11/20 06:26:50;;;;;;;;;;;;;;;;;;4429117;32;20007;-67
2022/11/20 06:29:15;;;;;;;;;;;;;;;;;;4419380;32;19997;-67
2022/11/20 06:31:42;;;;;;;;;;;;;;;;;;4422770;32;19949;-68
2022/11/20 06:34:07;;;;;;;;;;;;;;;;;;4424322;32;20299;-69
2022/11/20 06:36:32;;;;;;;;;;;;;;;;;;4424241;32;19944;-67
2022/11/20 06:38:57;;;;;;;;;;;;;;;;;;4423073;32;20004;-67
2022/11/20 06:41:22;;;;;;;;;;;;;;;;;;4424140;32;19977;-68
2022/11/20 06:43:47;;;;;;;;;;;;;;;;;;4422102;32;19988;-68
2022/11/20 06:46:12;;;;;;;;;;;;;;;;;;4422049;32;19966;-68
2022/11/20 06:48:38;;;;;;;;;;;;;;;;;;4407887;32;19940;-68
2022/11/20 06:51:03;;;;;;;;;;;;;;;;;;4422014;32;19937;-68
2022/11/20 06:53:28;;;;;;;;;;;;;;;;;;4423616;32;19941;-69
2022/11/20 06:55:53;;;;;;;;;;;;;;;;;;4422895;32;19949;-68
2022/11/20 06:58:18;;;;;;;;;;;;;;;;;;4422398;32;20311;-69
2022/11/20 07:00:43;;;;;;;;;;;;;;;;;;4422049;32;19933;-69
2022/11/20 07:03:08;;;;;;;;;;;;;;;;;;4407769;32;19949;-68
2022/11/20 07:05:33;;;;;;;;;;;;;;;;;;4422569;32;19966;-68
2022/11/20 07:07:58;;;;;;;;;;;;;;;;;;4429022;32;20345;-68
2022/11/20 07:10:23;;;;;;;;;;;;;;;;;;4425102;32;19955;-69
2022/11/20 07:12:49;;;;;;;;;;;;;;;;;;4437112;32;19940;-68
2022/11/20 07:15:14;;;;;;;;;;;;;;;;;;4433994;32;19951;-68
2022/11/20 07:17:39;;;;;;;;;;;;;;;;;;4438016;32;19936;-69
2022/11/20 07:20:04;;;;;;;;;;;;;;;;;;4438542;32;19932;-69
2022/11/20 07:22:29;;;;;;;;;;;;;;;;;;4422624;32;19940;-68
2022/11/20 07:24:54;;;;;;;;;;;;;;;;;;4430298;32;20250;-67
2022/11/20 07:27:19;;;;;;;;;;;;;;;;;;4421685;32;19948;-70
2022/11/20 07:29:45;;;;;;;;;;;;;;;;;;4407677;32;19941;-71
2022/11/20 07:32:10;;;;;;;;;;;;;;;;;;4422090;32;19933;-69
2022/11/20 07:34:35;;;;;;;;;;;;;;;;;;4421207;32;19932;-69
2022/11/20 07:37:00;;;;;;;;;;;;;;;;;;4423240;32;19978;-69
2022/11/20 07:39:25;;;;;;;;;;;;;;;;;;4422348;32;19933;-69
2022/11/20 07:41:50;;;;;;;;;;;;;;;;;;4421130;32;19944;-69
2022/11/20 07:44:15;;;;;;;;;;;;;;;;;;4422837;32;19937;-69
2022/11/20 07:46:40;;;;;;;;;;;;;;;;;;4422172;32;20287;-69
2022/11/20 07:49:05;;;;;;;;;;;;;;;;;;4421185;32;19937;-69
2022/11/20 07:51:30;;;;;;;;;;;;;;;;;;4422670;32;19948;-69
2022/11/20 07:53:55;;;;;;;;;;;;;;;;;;4407435;32;19933;-69
2022/11/20 07:56:20;;;;;;;;;;;;;;;;;;4421120;32;19967;-69
2022/11/20 07:58:45;;;;;;;;;;;;;;;;;;4426730;32;19945;-69
2022/11/20 08:01:11;;;;;;;;;;;;;;;;;;4436346;32;19941;-69
2022/11/20 08:03:39;;;;;;;;;;;;;;;;;;4419029;32;20007;-69
2022/11/20 08:06:04;;;;;;;;;;;;;;;;;;4420937;32;19959;-70
2022/11/20 08:08:29;;;;;;;;;;;;;;;;;;4421008;32;19961;-69
2022/11/20 08:14:11;;;;;;;;;;;;;;;;;;4426133;32;19966;-69
2022/11/20 08:16:23;;;;;;;;;;;;;;;;;;4421840;32;19940;-69
2022/11/20 08:18:48;;;;;;;;;;;;;;;;;;4421060;32;19937;-68
2022/11/20 08:21:13;;;;;;;;;;;;;;;;;;4435209;32;19933;-68
2022/11/20 08:23:38;;;;;;;;;;;;;;;;;;4421608;32;19952;-68
2022/11/20 08:26:03;;;;;;;;;;;;;;;;;;4437717;32;19981;-67
2022/11/20 08:28:28;;;;;;;;;;;;;;;;;;4436502;32;19937;-67
2022/11/20 08:30:54;;;;;;;;;;;;;;;;;;4422865;32;19996;-68
2022/11/20 08:33:19;;;;;;;;;;;;;;;;;;4423799;32;19947;-68
2022/11/20 08:35:44;;;;;;;;;;;;;;;;;;4435578;32;19980;-68
2022/11/20 08:38:09;;;;;;;;;;;;;;;;;;4436763;32;19933;-68
2022/11/20 08:40:34;;;;;;;;;;;;;;;;;;4421204;32;19992;-68
2022/11/20 08:42:59;;;;;;;;;;;;;;;;;;4437268;32;19933;-68
2022/11/20 08:45:24;;;;;;;;;;;;;;;;;;4435835;32;19933;-67
2022/11/20 08:47:49;;;;;;;;;;;;;;;;;;4437244;32;20335;-68
2022/11/20 08:50:14;;;;;;;;;;;;;;;;;;4435791;32;20295;-68
2022/11/20 08:52:39;;;;;;;;;;;;;;;;;;4435733;32;20292;-68
2022/11/20 08:55:04;;;;;;;;;;;;;;;;;;4423194;32;19992;-68
2022/11/20 08:57:30;;;;;;;;;;;;;;;;;;4423214;32;19959;-70
2022/11/20 08:59:55;;;;;;;;;;;;;;;;;;4437503;32;19932;-68
2022/11/20 09:02:20;;;;;;;;;;;;;;;;;;4437379;32;19937;-67
2022/11/20 09:04:45;;;;;;;;;;;;;;;;;;4425012;32;20326;-68
2022/11/20 09:07:10;;;;;;;;;;;;;;;;;;4432953;32;19970;-69
2022/11/20 09:09:35;;;;;;;;;;;;;;;;;;4437130;32;20296;-69
2022/11/20 09:12:00;;;;;;;;;;;;;;;;;;4423090;32;19957;-69
2022/11/20 09:14:28;;;;;;;;;;;;;;;;;;4435653;32;19943;-70
2022/11/20 09:16:54;;;;;;;;;;;;;;;;;;4435157;32;19997;-69
2022/11/20 09:19:19;;;;;;;;;;;;;;;;;;4435632;32;19937;-69
2022/11/20 09:21:44;;;;;;;;;;;;;;;;;;4435716;32;20307;-69
2022/11/20 09:24:09;;;;;;;;;;;;;;;;;;4437176;32;19990;-69
2022/11/20 09:26:34;;;;;;;;;;;;;;;;;;4437078;32;19980;-69
2022/11/20 09:28:59;;;;;;;;;;;;;;;;;;4437219;32;19956;-69
2022/11/20 09:31:25;;;;;;;;;;;;;;;;;;4437247;32;19955;-69
2022/11/20 09:33:50;;;;;;;;;;;;;;;;;;4432079;32;19933;-68
2022/11/20 09:36:16;;;;;;;;;;;;;;;;;;4420162;32;19933;-68
2022/11/20 09:38:42;;;;;;;;;;;;;;;;;;4420929;32;19941;-70
2022/11/20 09:41:07;;;;;;;;;;;;;;;;;;4419748;32;20247;-69
2022/11/20 09:43:32;;;;;;;;;;;;;;;;;;4432684;32;19941;-69
2022/11/20 09:45:57;;;;;;;;;;;;;;;;;;4437236;32;20266;-69
2022/11/20 09:48:22;;;;;;;;;;;;;;;;;;4436724;32;19975;-68
2022/11/20 09:50:50;;;;;;;;;;;;;;;;;;4436770;32;19936;-68
2022/11/20 09:53:15;;;;;;;;;;;;;;;;;;4436873;32;19947;-68
2022/11/20 09:55:40;;;;;;;;;;;;;;;;;;4436117;32;19933;-68
2022/11/20 09:58:05;;;;;;;;;;;;;;;;;;4435303;32;19937;-68
2022/11/20 10:00:30;;;;;;;;;;;;;;;;;;4437115;32;20325;-67
2022/11/20 10:02:56;;;;;;;;;;;;;;;;;;4421460;32;19960;-67
2022/11/20 10:05:21;;;;;;;;;;;;;;;;;;4423685;32;19968;-67
2022/11/20 10:07:46;;;;;;;;;;;;;;;;;;4424317;32;19941;-67
2022/11/20 10:10:11;;;;;;;;;;;;;;;;;;4422906;32;19934;-69
2022/11/20 10:12:36;;;;;;;;;;;;;;;;;;4408602;32;20337;-68
2022/11/20 10:15:01;;;;;;;;;;;;;;;;;;4423360;32;19966;-68
2022/11/20 10:17:26;;;;;;;;;;;;;;;;;;4408715;32;19988;-68
2022/11/20 10:19:51;;;;;;;;;;;;;;;;;;4422683;32;19969;-68
2022/11/20 10:22:16;;;;;;;;;;;;;;;;;;4422248;32;19991;-68
2022/11/20 10:24:41;;;;;;;;;;;;;;;;;;4410015;32;19964;-67
2022/11/20 10:27:07;;;;;;;;;;;;;;;;;;4423690;32;19971;-68
2022/11/20 10:29:33;;;;;;;;;;;;;;;;;;4408409;32;19976;-68
2022/11/20 10:31:58;;;;;;;;;;;;;;;;;;4423698;32;19967;-68
2022/11/20 10:34:23;;;;;;;;;;;;;;;;;;4428345;32;20220;-67
2022/11/20 10:36:48;;;;;;;;;;;;;;;;;;4437311;32;19941;-66
2022/11/20 10:39:13;;;;;;;;;;;;;;;;;;4436723;32;19938;-67
2022/11/20 10:41:38;;;;;;;;;;;;;;;;;;4437549;32;20311;-68
2022/11/20 10:44:03;;;;;;;;;;;;;;;;;;4437343;32;19936;-67
2022/11/20 10:46:28;;;;;;;;;;;;;;;;;;4438421;32;19944;-68
2022/11/20 10:48:53;;;;;;;;;;;;;;;;;;4422849;32;19941;-68
2022/11/20 10:51:18;;;;;;;;;;;;;;;;;;4436693;32;20266;-68
2022/11/20 10:53:43;;;;;;;;;;;;;;;;;;4438380;32;19947;-67
2022/11/20 10:56:08;;;;;;;;;;;;;;;;;;4438776;32;19956;-68
2022/11/20 10:58:34;;;;;;;;;;;;;;;;;;4438114;32;19969;-69
2022/11/20 11:00:59;;;;;;;;;;;;;;;;;;4436739;32;19933;-68
2022/11/20 11:03:24;;;;;;;;;;;;;;;;;;4438193;32;20353;-68
2022/11/20 11:05:49;;;;;;;;;;;;;;;;;;4421572;32;19932;-67
2022/11/20 11:08:14;;;;;;;;;;;;;;;;;;4422202;32;20047;-67
2022/11/20 11:10:41;;;;;;;;;;;;;;;;;;4423084;32;19933;-68
2022/11/20 11:13:06;;;;;;;;;;;;;;;;;;4421659;32;19951;-67
2022/11/20 11:15:31;;;;;;;;;;;;;;;;;;4422577;32;19956;-67
2022/11/20 11:17:56;;;;;;;;;;;;;;;;;;4407269;32;19949;-69
2022/11/20 11:20:21;;;;;;;;;;;;;;;;;;4421737;32;19943;-69
2022/11/20 11:22:46;;;;;;;;;;;;;;;;;;4422651;32;19933;-69
2022/11/20 11:25:11;;;;;;;;;;;;;;;;;;4421218;32;19938;-68
2022/11/20 11:27:36;;;;;;;;;;;;;;;;;;4407500;32;19948;-68
2022/11/20 11:30:01;;;;;;;;;;;;;;;;;;4421921;32;19941;-68
2022/11/20 11:32:27;;;;;;;;;;;;;;;;;;4421179;32;19933;-68
2022/11/20 11:34:52;;;;;;;;;;;;;;;;;;4417963;32;20312;-69
2022/11/20 11:37:17;;;;;;;;;;;;;;;;;;4436549;32;19932;-68
2022/11/20 11:39:42;;;;;;;;;;;;;;;;;;4421980;32;20046;-68
2022/11/20 11:42:07;;;;;;;;;;;;;;;;;;4436789;32;19933;-68
2022/11/20 11:47:16;;;;;;;;;;;;;;;;;;4437636;32;19950;-68
2022/11/20 11:49:41;;;;;;;;;;;;;;;;;;4437481;32;19976;-67
2022/11/20 11:52:07;;;;;;;;;;;;;;;;;;4436989;32;19984;-70
2022/11/20 11:54:32;;;;;;;;;;;;;;;;;;4422004;32;20246;-68
2022/11/20 11:56:57;;;;;;;;;;;;;;;;;;4438197;32;19932;-67
2022/11/20 11:59:22;;;;;;;;;;;;;;;;;;4437971;32;20020;-68
2022/11/20 12:01:47;;;;;;;;;;;;;;;;;;4436460;32;19960;-68
2022/11/20 12:04:12;;;;;;;;;;;;;;;;;;4428979;32;19968;-68
2022/11/20 12:06:37;;;;;;;;;;;;;;;;;;4431522;32;20247;-68
2022/11/20 12:09:02;;;;;;;;;;;;;;;;;;4436128;32;19951;-68
2022/11/20 12:11:27;;;;;;;;;;;;;;;;;;4436543;32;19966;-68
2022/11/20 12:13:53;;;;;;;;;;;;;;;;;;4435962;32;20274;-68
2022/11/20 12:16:18;;;;;;;;;;;;;;;;;;4437304;32;19971;-68
2022/11/20 12:18:43;;;;;;;;;;;;;;;;;;4426391;32;20008;-68
2022/11/20 12:21:08;;;;;;;;;;;;;;;;;;4420260;32;19975;-68
2022/11/20 12:23:33;;;;;;;;;;;;;;;;;;4421113;32;19937;-68
2022/11/20 12:25:58;;;;;;;;;;;;;;;;;;4422335;32;19976;-69
2022/11/20 12:28:23;;;;;;;;;;;;;;;;;;4419712;32;19941;-67
2022/11/20 12:30:48;;;;;;;;;;;;;;;;;;4421063;32;19937;-68
2022/11/20 12:33:13;;;;;;;;;;;;;;;;;;4419971;32;19933;-68
2022/11/20 12:35:38;;;;;;;;;;;;;;;;;;4422238;32;19945;-68
2022/11/20 12:38:04;;;;;;;;;;;;;;;;;;4421962;32;19933;-67
2022/11/20 12:40:29;;;;;;;;;;;;;;;;;;4420178;32;19956;-68
2022/11/20 12:45:38;;;;;;;;;;;;;;;;;;4421647;32;19960;-68
2022/11/20 12:48:03;;;;;;;;;;;;;;;;;;4421487;32;19980;-68
2022/11/20 12:50:29;;;;;;;;;;;;;;;;;;4421178;32;19961;-67
2022/11/20 12:52:55;;;;;;;;;;;;;;;;;;4421344;32;19948;-68
2022/11/20 12:55:20;;;;;;;;;;;;;;;;;;4421387;32;19943;-68
2022/11/20 12:57:47;;;;;;;;;;;;;;;;;;4420170;32;19933;-67
2022/11/20 13:00:13;;;;;;;;;;;;;;;;;;4421418;32;19953;-68
2022/11/20 13:02:38;;;;;;;;;;;;;;;;;;4421622;32;19947;-68
2022/11/20 13:05:03;;;;;;;;;;;;;;;;;;4421707;32;19937;-68
2022/11/20 13:07:29;;;;;;;;;;;;;;;;;;4405965;32;19971;-68
2022/11/20 13:09:54;;;;;;;;;;;;;;;;;;4419807;32;20242;-68
2022/11/20 13:12:19;;;;;;;;;;;;;;;;;;4421185;32;20380;-68
2022/11/20 13:14:44;;;;;;;;;;;;;;;;;;4421749;32;19941;-67
2022/11/20 13:17:09;;;;;;;;;;;;;;;;;;4421751;32;19941;-68
2022/11/20 13:19:34;;;;;;;;;;;;;;;;;;4419911;32;19943;-68
2022/11/20 13:21:59;;;;;;;;;;;;;;;;;;4421477;32;19937;-68
2022/11/20 13:24:26;;;;;;;;;;;;;;;;;;4421185;32;19937;-68
2022/11/20 13:26:51;;;;;;;;;;;;;;;;;;4419527;32;19964;-69
2022/11/20 13:29:16;;;;;;;;;;;;;;;;;;4406021;32;20308;-69
2022/11/20 13:31:42;;;;;;;;;;;;;;;;;;4424893;32;19991;-69
2022/11/20 13:34:07;;;;;;;;;;;;;;;;;;4421229;32;19937;-69
2022/11/20 13:36:34;;;;;;;;;;;;;;;;;;4420686;32;19964;-68
2022/11/20 13:38:59;;;;;;;;;;;;;;;;;;4419603;32;20330;-69
2022/11/20 13:41:28;;;;;;;;;;;;;;;;;;4424674;32;19946;-69
2022/11/20 13:43:53;;;;;;;;;;;;;;;;;;4422851;32;20341;-68
2022/11/20 13:46:24;;;;;;;;;;;;;;;;;;4424230;32;20266;-69
2022/11/20 13:48:49;;;;;;;;;;;;;;;;;;4424384;32;19992;-67
2022/11/20 13:51:14;;;;;;;;;;;;;;;;;;4424308;32;19933;-68
2022/11/20 13:53:39;;;;;;;;;;;;;;;;;;4422858;32;19972;-69
2022/11/20 13:56:04;;;;;;;;;;;;;;;;;;4422702;32;20318;-69
2022/11/20 13:58:31;;;;;;;;;;;;;;;;;;4423577;32;19996;-69
2022/11/20 14:00:56;;;;;;;;;;;;;;;;;;4424101;32;19933;-69
2022/11/20 14:03:22;;;;;;;;;;;;;;;;;;4434135;32;19969;-70
2022/11/20 14:05:48;;;;;;;;;;;;;;;;;;4438344;32;19933;-69
2022/11/20 14:08:13;;;;;;;;;;;;;;;;;;4439412;32;19944;-69
2022/11/20 14:10:39;;;;;;;;;;;;;;;;;;4439474;32;19932;-70
2022/11/20 14:13:04;;;;;;;;;;;;;;;;;;4438559;32;19942;-71
2022/11/20 14:15:29;;;;;;;;;;;;;;;;;;4423734;32;19970;-72
2022/11/20 14:17:54;;;;;;;;;;;;;;;;;;4438539;32;19943;-71
2022/11/20 14:20:23;;;;;;;;;;;;;;;;;;4437771;32;20284;-70
2022/11/20 14:22:48;;;;;;;;;;;;;;;;;;4437514;32;19936;-70
2022/11/20 14:25:14;;;;;;;;;;;;;;;;;;4437878;32;19932;-70
2022/11/20 14:27:39;;;;;;;;;;;;;;;;;;4438839;32;19946;-70
2022/11/20 14:30:04;;;;;;;;;;;;;;;;;;4425076;32;19955;-70
2022/11/20 14:32:29;;;;;;;;;;;;;;;;;;4439085;32;19933;-70
2022/11/20 14:34:54;;;;;;;;;;;;;;;;;;4437720;32;19944;-69
2022/11/20 14:37:19;;;;;;;;;;;;;;;;;;4437265;32;20268;-70
2022/11/20 14:39:44;;;;;;;;;;;;;;;;;;4437400;32;19937;-69
2022/11/20 14:42:09;;;;;;;;;;;;;;;;;;4438811;32;20078;-70
2022/11/20 14:44:34;;;;;;;;;;;;;;;;;;4430694;32;19941;-70
2022/11/20 14:46:59;;;;;;;;;;;;;;;;;;4422021;32;19997;-69
2022/11/20 14:49:24;;;;;;;;;;;;;;;;;;4421792;32;20299;-69
2022/11/20 14:51:49;;;;;;;;;;;;;;;;;;4422924;32;19933;-70
2022/11/20 14:54:15;;;;;;;;;;;;;;;;;;4423643;32;19933;-69
2022/11/20 14:56:40;;;;;;;;;;;;;;;;;;4421670;32;19986;-70
2022/11/20 14:59:05;;;;;;;;;;;;;;;;;;4423454;32;19934;-69
2022/11/20 15:01:30;;;;;;;;;;;;;;;;;;4427045;32;20319;-69
2022/11/20 15:03:55;;;;;;;;;;;;;;;;;;4437766;32;19943;-71
2022/11/20 15:06:20;;;;;;;;;;;;;;;;;;4437120;32;20247;-70
2022/11/20 15:08:45;;;;;;;;;;;;;;;;;;4438536;32;19952;-70
2022/11/20 15:11:10;;;;;;;;;;;;;;;;;;4437758;32;19933;-69
2022/11/20 15:13:35;;;;;;;;;;;;;;;;;;4435353;32;19975;-70
2022/11/20 15:16:00;;;;;;;;;;;;;;;;;;4422625;32;19933;-71
2022/11/20 15:18:26;;;;;;;;;;;;;;;;;;4428068;32;19978;-71
2022/11/20 15:20:51;;;;;;;;;;;;;;;;;;4438870;32;20292;-71
2022/11/20 15:23:18;;;;;;;;;;;;;;;;;;4438775;32;19933;-70
2022/11/20 15:25:43;;;;;;;;;;;;;;;;;;4436997;32;19943;-70
2022/11/20 15:28:08;;;;;;;;;;;;;;;;;;4436895;32;19945;-70
2022/11/20 15:30:33;;;;;;;;;;;;;;;;;;4438529;32;19937;-69
2022/11/20 15:32:58;;;;;;;;;;;;;;;;;;4436816;32;19929;-71
2022/11/20 15:35:23;;;;;;;;;;;;;;;;;;4436569;32;19937;-71
2022/11/20 15:37:48;;;;;;;;;;;;;;;;;;4438049;32;19971;-72
2022/11/20 15:40:13;;;;;;;;;;;;;;;;;;4436298;32;20270;-72
2022/11/20 15:43:02;;;;;;;;;;;;;;;;;;4438136;32;19937;-72
2022/11/20 15:45:23;;;;;;;;;;;;;;;;;;4422971;32;19940;-71
2022/11/20 15:47:49;;;;;;;;;;;;;;;;;;4422833;32;19953;-71
2022/11/20 15:50:14;;;;;;;;;;;;;;;;;;4422970;32;19937;-71
2022/11/20 15:52:39;;;;;;;;;;;;;;;;;;4407129;32;19937;-70
2022/11/20 15:55:04;;;;;;;;;;;;;;;;;;4420893;32;20338;-71
2022/11/20 15:57:29;;;;;;;;;;;;;;;;;;4408820;32;20374;-72
2022/11/20 15:59:54;;;;;;;;;;;;;;;;;;4422661;32;19941;-71
2022/11/20 16:02:19;;;;;;;;;;;;;;;;;;4432401;32;19928;-71
2022/11/20 16:04:44;;;;;;;;;;;;;;;;;;4423803;32;19937;-72
2022/11/20 16:07:09;;;;;;;;;;;;;;;;;;4420885;32;20284;-71
2022/11/20 16:09:34;;;;;;;;;;;;;;;;;;4422311;32;19994;-72
2022/11/20 16:11:59;;;;;;;;;;;;;;;;;;4421693;32;19949;-72
2022/11/20 16:17:08;;;;;;;;;;;;;;;;;;4427896;32;20074;-73
2022/11/20 16:19:34;;;;;;;;;;;;;;;;;;4429537;32;19937;-72
2022/11/20 16:22:01;;;;;;;;;;;;;;;;;;4421343;32;19933;-71
2022/11/20 16:24:26;;;;;;;;;;;;;;;;;;4421644;32;20293;-72
2022/11/20 16:26:51;;;;;;;;;;;;;;;;;;4428513;32;20026;-71
2022/11/20 16:29:16;;;;;;;;;;;;;;;;;;4433277;32;19964;-72
2022/11/20 16:31:41;;;;;;;;;;;;;;;;;;4431909;32;19955;-72
2022/11/20 16:34:06;;;;;;;;;;;;;;;;;;4432750;32;19947;-71
2022/11/20 16:36:31;;;;;;;;;;;;;;;;;;4428846;32;19993;-72
2022/11/20 16:38:56;;;;;;;;;;;;;;;;;;4426937;32;19934;-73
2022/11/20 16:41:21;;;;;;;;;;;;;;;;;;4421274;32;19953;-72
2022/11/20 16:43:46;;;;;;;;;;;;;;;;;;4421132;32;19933;-71
2022/11/20 16:46:11;;;;;;;;;;;;;;;;;;4425573;32;20205;-72
2022/11/20 16:48:37;;;;;;;;;;;;;;;;;;4435900;32;19957;-73